• Join FlightAware (Why Join?)
  • Login
  • US Flag 
12:27AM EDT


 

Airport Tracker/Info


-or-


 

Live Flight TrackerFlight Track Log ✈ FLG3458 ✈ 29-Apr-2013 ✈ KBNA - KJFK

Flight Track Log - Related Links

Times and Time Zones

All times are in EDT time to prevent confusion due to time zone crossing. See the FLG3458 flight status page for this flight to view local times or setup timezone preferences in your user account.

Time Position Orientation Groundspeed Altitude Reporting Facility
EDT Latitude Longitude Course Direction KTS MPH feet Rate Location/Type
05:28PM 36.1500 -86.6833 64° Northeast 158 182 1,300  Level Nashville TRACON
05:29PM 36.2000 -86.6500 28° Northeast 197 227 3,400 2,280 Climbing Nashville TRACON
05:30PM 36.2500 -86.6000 39° Northeast 279 321 5,900 2,760 Climbing Nashville TRACON
05:31PM 36.1707 -86.2557 80° East  Level FlightAware Approximate
05:32PM 36.1913 -86.1186 78° East  Level FlightAware Approximate
05:32PM 36.2533 -86.4503 88° East 305 351 10,600  Level Memphis Center
05:33PM 36.2310 -85.9892 64° Northeast  Level FlightAware Approximate
05:33PM 36.2664 -86.3339 82° East 328 377 12,500  Level Memphis Center
05:34PM 36.2769 -86.2097 84° East 346 398 15,000 2,460 Climbing Memphis Center
05:35PM 36.2892 -86.0803 83° East 372 428 17,500 2,100 Climbing Memphis Center
05:37PM 36.3328 -85.7756 80° East 417 480 21,900 2,040 Climbing Indianapolis Center
05:38PM 36.3922 -85.6500 60° Northeast 420 483 24,200 1,800 Climbing Indianapolis Center
05:39PM 36.4544 -85.5219 59° Northeast 430 495 25,700 1,440 Climbing Indianapolis Center
05:40PM 36.5158 -85.3897 60° Northeast 438 504 27,200 1,380 Climbing Indianapolis Center
05:41PM 36.5800 -85.2547 59° Northeast 449 517 28,600 1,500 Climbing Indianapolis Center
05:42PM 36.6356 -85.1114 64° Northeast 456 525 30,400 1,620 Climbing Indianapolis Center
05:43PM 36.6803 -84.9653 69° East 451 519 32,000 1,500 Climbing Indianapolis Center
05:44PM 36.7242 -84.8186 69° East 451 519 33,600 1,440 Climbing Indianapolis Center
05:45PM 36.7769 -84.6467 69° East 444 511 35,000 660 Climbing Indianapolis Center
05:46PM 36.8214 -84.5003 69° East 462 532 35,000  Level Indianapolis Center
05:47PM 36.8667 -84.3486 69° East 465 535 35,000  Level Indianapolis Center
05:48PM 36.9119 -84.1978 69° East 465 535 35,000  Level Indianapolis Center
05:49PM 36.9575 -84.0467 69° East 463 533 35,000  Level Indianapolis Center
05:50PM 37.0000 -83.9025 70° East 447 514 35,000  Level Indianapolis Center
05:51PM 37.0500 -83.7331 70° East 442 509 35,000  Level Indianapolis Center
05:52PM 37.0919 -83.5872 70° East 443 510 35,000  Level Indianapolis Center
05:53PM 37.1356 -83.4406 70° East 445 512 35,000  Level Indianapolis Center
05:54PM 37.1792 -83.2933 70° East 447 514 35,000  Level Indianapolis Center
05:55PM 37.2222 -83.1422 70° East 453 521 35,000  Level Indianapolis Center
05:56PM 37.2658 -82.9914 70° East 455 524 35,000  Level Indianapolis Center
05:58PM 37.3086 -82.8411 70° East 454 522 35,000  Level Indianapolis Center
05:59PM 37.3581 -82.6642 71° East 455 524 35,000  Level Indianapolis Center
06:00PM 37.4017 -82.5122 70° East 458 527 35,000  Level Indianapolis Center
06:01PM 37.4444 -82.3608 70° East 458 527 35,000  Level Indianapolis Center
06:02PM 37.4864 -82.2078 71° East 461 531 35,000  Level Indianapolis Center
06:03PM 37.5286 -82.0547 71° East 462 532 35,000  Level Indianapolis Center
06:04PM 37.5714 -81.9011 71° East 463 533 35,000  Level Indianapolis Center
06:05PM 37.6211 -81.7203 71° East 466 536 35,000  Level Indianapolis Center
06:06PM 37.6619 -81.5661 71° East 464 534 35,000  Level Indianapolis Center
06:07PM 37.7053 -81.4061 71° East 466 536 35,000  Level Indianapolis Center
06:07PM 37.7275 -81.3239 71° East 454 522 35,000  Level Washington Center
06:08PM 37.7658 -81.1717 72° East 454 522 35,000  Level Washington Center
06:09PM 37.7878 -81.0156 80° East 449 517 35,000  Level Washington Center
06:10PM 37.7964 -80.8717 86° East 449 517 35,000  Level Washington Center
06:11PM 37.8053 -80.7119 86° East 449 517 35,000  Level Washington Center
06:12PM 37.8183 -80.5525 84° East 449 517 35,000  Level Washington Center
06:13PM 37.8272 -80.3875 86° East 460 529 35,000  Level Washington Center
06:14PM 37.8383 -80.2067 85° East 460 529 35,000  Level Washington Center
06:15PM 37.8508 -80.0417 84° East 460 529 35,000  Level Washington Center
06:16PM 37.8611 -79.8767 85° East 460 529 35,000  Level Washington Center
06:17PM 37.8711 -79.7089 86° East 465 535 35,000  Level Washington Center
06:18PM 37.8808 -79.5436 86° East 465 535 35,000  Level Washington Center
06:19PM 37.8906 -79.3756 86° East 471 542 35,000  Level Washington Center
06:20PM 37.8994 -79.2208 86° East 479 551 35,000  Level Washington Center
06:21PM 37.8856 -79.0517 96° East 479 551 35,000  Level Washington Center
06:22PM 37.8403 -78.8892 109° East 479 551 35,000  Level Washington Center
06:23PM 37.7944 -78.7244 109° East 484 557 35,000  Level Washington Center
06:24PM 37.7444 -78.5594 111° Southeast 495 570 35,000  Level Washington Center
06:25PM 37.6964 -78.3869 109° East 495 570 35,000  Level Washington Center
06:26PM 37.6481 -78.2253 111° Southeast 490 564 35,000  Level Washington Center
06:27PM 37.6031 -78.0819 112° Southeast 490 564 35,000  Level Washington Center
06:28PM 37.5561 -77.9233 110° East 490 564 35,000  Level Washington Center
06:29PM 37.5239 -77.7600 104° East 485 558 35,000  Level Washington Center
06:30PM 37.5122 -77.5894 95° East 485 558 35,000  Level Washington Center
06:31PM 37.5003 -77.4136 95° East 490 564 35,000  Level Washington Center
06:32PM 37.4883 -77.2356 95° East 503 579 35,000  Level Washington Center
06:33PM 37.4700 -77.0311 96° East 528 608 35,000  Level Washington Center
06:34PM 37.4575 -76.8475 95° East 528 608 35,000  Level Washington Center
06:35PM 37.4508 -76.6669 93° East 528 608 35,000  Level Washington Center
06:36PM 37.4711 -76.4919 82° East 507 583 35,000  Level Washington Center
06:37PM 37.5328 -76.3331 64° Northeast 493 567 35,000  Level Washington Center
06:38PM 37.6128 -76.2053 52° Northeast 488 562 35,000  Level Washington Center
06:39PM 37.7008 -76.0669 51° Northeast 493 567 35,000  Level Washington Center
06:40PM 37.7828 -75.9203 55° Northeast 503 579 35,000  Level Washington Center
06:41PM 37.8747 -75.7758 51° Northeast 514 592 35,000  Level Washington Center
06:42PM 37.9625 -75.6314 52° Northeast 514 592 35,000  Level Washington Center
06:43PM 38.0481 -75.4889 53° Northeast 514 592 35,000  Level Washington Center
06:44PM 38.1792 -75.3883 31° Northeast 492 566 35,000  Level Washington Center
06:45PM 38.3019 -75.3167 25° Northeast 486 559 35,000  Level Washington Center
06:46PM 38.4103 -75.2447 27° Northeast 480 552 35,000  Level Washington Center
06:47PM 38.5311 -75.1669 27° Northeast 480 552 35,000  Level Washington Center
06:48PM 38.6558 -75.0892 26° Northeast 485 558 35,000  Level Washington Center
06:49PM 38.7806 -75.0031 28° Northeast 491 565 35,000 -1,140 Level Washington Center
06:50PM 38.9008 -74.9089 31° Northeast 497 572 32,800 -2,400 Descending Washington Center
06:51PM 39.0106 -74.8036 37° Northeast 497 572 30,300 -2,520 Descending Washington Center
06:52PM 39.1247 -74.7006 35° Northeast 497 572 27,800 -2,520 Descending Washington Center
06:53PM 39.2300 -74.6028 36° Northeast 484 557 25,300 -2,400 Descending Washington Center
06:55PM 39.3675 -74.4767 35° Northeast 448 516 22,000 -2,400 Descending New York Center
06:56PM 39.4600 -74.3875 37° Northeast 422 486 19,600 -2,040 Descending New York Center
06:57PM 39.5628 -74.2931 35° Northeast 399 459 18,000 -1,080 Descending New York Center
06:58PM 39.6467 -74.2056 39° Northeast 399 459 17,500 -1,080 Descending New York Center
06:59PM 39.7156 -74.1281 41° Northeast 371 427 15,900 -1,740 Descending New York Center
07:00PM 39.7953 -74.0400 40° Northeast 352 405 14,100 -1,740 Descending New York Center
07:01PM 39.8703 -73.9706 35° Northeast 333 383 12,400 -1,500 Descending New York Center
07:02PM 39.9467 -73.9144 29° Northeast 321 369 11,100 -720 Descending New York Center
07:03PM 40.0164 -73.8825 19° North 299 344 11,000 -120 Descending New York Center
07:04PM 40.0997 -73.8833 360° North 294 338 10,900 -960 Descending New York Center
07:05PM 40.1889 -73.9011 351° North 294 338 9,100 -1,860 Descending New York Center
07:06PM 40.2656 -73.9128 353° North 286 329 7,300 -1,800 Descending New York Center
07:07PM 40.3342 -73.9239 353° North 281 323 5,500 -1,920 Descending New York Center
07:08PM 40.4167 -73.9333 355° North 279 321 3,500 -1,260 Descending New York TRACON
07:09PM 40.4833 -73.9500 349° North 245 282 3,100 -600 Descending New York TRACON
07:10PM 40.5500 -73.9500 360° North 211 243 2,400 -720 Descending New York TRACON